<?xml version="1.0" encoding="UTF-8" standalone="no" ?><gpx xmlns="http://www.topografix.com/GPX/1/1" xmlns:gpxx="http://www.garmin.com/xmlschemas/GpxExtensions/v3" xmlns:wptx1="http://www.garmin.com/xmlschemas/WaypointExtension/v1" xmlns:gpxtpx="http://www.garmin.com/xmlschemas/TrackPointExtension/v1" creator="GuideVTT.com" version="1.1" xmlns:xsi="http://www.w3.org/2001/XMLSchema-instance" xsi:schemaLocation="http://www.topografix.com/GPX/1/1 http://www.topografix.com/GPX/1/1/gpx.xsd http://www.garmin.com/xmlschemas/GpxExtensions/v3 http://www8.garmin.com/xmlschemas/GpxExtensionsv3.xsd http://www.garmin.com/xmlschemas/WaypointExtension/v1 http://www8.garmin.com/xmlschemas/WaypointExtensionv1.xsd http://www.garmin.com/xmlschemas/TrackPointExtension/v1 http://www.garmin.com/xmlschemas/TrackPointExtensionv1.xsd">
<metadata><link href="http://www.garmin.com"><text>Garmin International</text></link><time>2013-06-22T15:13:50Z</time></metadata>
<trk><name>wri_2.gpx</name><extensions><gpxx:TrackExtension><gpxx:DisplayColor>Cyan</gpxx:DisplayColor></gpxx:TrackExtension></extensions><trkseg>
<trkpt lat="47.41506100" lon="7.07573175"><ele>445.708374</ele><time>2006-06-25T11:16:00Z</time></trkpt>
<trkpt lat="47.41501808" lon="7.07575321"><ele>449.072998</ele><time>2006-06-25T11:16:17Z</time></trkpt>
<trkpt lat="47.41499662" lon="7.07568884"><ele>448.111816</ele><time>2006-06-25T11:16:21Z</time></trkpt>
<trkpt lat="47.41480350" lon="7.07543135"><ele>450.034424</ele><time>2006-06-25T11:16:33Z</time></trkpt>
<trkpt lat="47.41463184" lon="7.07502365"><ele>450.515015</ele><time>2006-06-25T11:16:47Z</time></trkpt>
<trkpt lat="47.41446018" lon="7.07433701"><ele>445.708374</ele><time>2006-06-25T11:17:04Z</time></trkpt>
<trkpt lat="47.41428852" lon="7.07392931"><ele>447.630981</ele><time>2006-06-25T11:17:10Z</time></trkpt>
<trkpt lat="47.41409540" lon="7.07382202"><ele>447.630981</ele><time>2006-06-25T11:17:14Z</time></trkpt>
<trkpt lat="47.41278648" lon="7.07414389"><ele>452.918213</ele><time>2006-06-25T11:17:50Z</time></trkpt>
<trkpt lat="47.41225004" lon="7.07405806"><ele>454.84082</ele><time>2006-06-25T11:18:03Z</time></trkpt>
<trkpt lat="47.41132736" lon="7.07365036"><ele>456.76355</ele><time>2006-06-25T11:18:25Z</time></trkpt>
<trkpt lat="47.41081238" lon="7.07350016"><ele>459.16687</ele><time>2006-06-25T11:18:39Z</time></trkpt>
<trkpt lat="47.41055489" lon="7.07324266"><ele>461.089478</ele><time>2006-06-25T11:18:51Z</time></trkpt>
<trkpt lat="47.41034031" lon="7.07277060"><ele>464.454102</ele><time>2006-06-25T11:19:07Z</time></trkpt>
<trkpt lat="47.41010427" lon="7.07214832"><ele>465.896118</ele><time>2006-06-25T11:19:25Z</time></trkpt>
<trkpt lat="47.40978241" lon="7.07176208"><ele>467.818726</ele><time>2006-06-25T11:19:39Z</time></trkpt>
<trkpt lat="47.40946054" lon="7.07148314"><ele>471.18335</ele><time>2006-06-25T11:19:53Z</time></trkpt>
<trkpt lat="47.40881681" lon="7.07073212"><ele>473.58667</ele><time>2006-06-25T11:20:19Z</time></trkpt>
<trkpt lat="47.40847349" lon="7.07036734"><ele>472.625366</ele><time>2006-06-25T11:20:33Z</time></trkpt>
<trkpt lat="47.40763664" lon="7.06950903"><ele>473.58667</ele><time>2006-06-25T11:21:04Z</time></trkpt>
<trkpt lat="47.40720749" lon="7.06910133"><ele>474.067261</ele><time>2006-06-25T11:21:22Z</time></trkpt>
<trkpt lat="47.40804434" lon="7.06985235"><ele>474.067261</ele><time>2006-06-25T11:21:37Z</time></trkpt>
<trkpt lat="47.40662813" lon="7.06822157"><ele>474.547974</ele><time>2006-06-25T11:21:47Z</time></trkpt>
<trkpt lat="47.40662813" lon="7.06804991"><ele>474.067261</ele><time>2006-06-25T11:21:57Z</time></trkpt>
<trkpt lat="47.40596294" lon="7.06742764"><ele>477.431885</ele><time>2006-06-25T11:22:26Z</time></trkpt>
<trkpt lat="47.40564108" lon="7.06732035"><ele>477.431885</ele><time>2006-06-25T11:22:38Z</time></trkpt>
<trkpt lat="47.40469694" lon="7.06736326"><ele>482.719238</ele><time>2006-06-25T11:23:01Z</time></trkpt>
<trkpt lat="47.40306616" lon="7.06689119"><ele>486.08374</ele><time>2006-06-25T11:23:31Z</time></trkpt>
<trkpt lat="47.40265846" lon="7.06671953"><ele>487.525635</ele><time>2006-06-25T11:23:40Z</time></trkpt>
<trkpt lat="47.40237951" lon="7.06644058"><ele>488.967773</ele><time>2006-06-25T11:23:49Z</time></trkpt>
<trkpt lat="47.40205765" lon="7.06641912"><ele>489.448364</ele><time>2006-06-25T11:23:58Z</time></trkpt>
<trkpt lat="47.40143538" lon="7.06551790"><ele>492.812988</ele><time>2006-06-25T11:24:22Z</time></trkpt>
<trkpt lat="47.40085602" lon="7.06487417"><ele>492.332397</ele><time>2006-06-25T11:24:40Z</time></trkpt>
<trkpt lat="47.39952564" lon="7.06384420"><ele>497.619629</ele><time>2006-06-25T11:25:16Z</time></trkpt>
<trkpt lat="47.39928961" lon="7.06397295"><ele>495.696899</ele><time>2006-06-25T11:25:21Z</time></trkpt>
<trkpt lat="47.39922523" lon="7.06427336"><ele>495.696899</ele><time>2006-06-25T11:25:25Z</time></trkpt>
<trkpt lat="47.39918232" lon="7.06545353"><ele>495.696899</ele><time>2006-06-25T11:25:41Z</time></trkpt>
<trkpt lat="47.39920378" lon="7.06568956"><ele>495.216187</ele><time>2006-06-25T11:25:44Z</time></trkpt>
<trkpt lat="47.39898920" lon="7.06592560"><ele>495.696899</ele><time>2006-06-25T11:25:49Z</time></trkpt>
<trkpt lat="47.39817381" lon="7.06594706"><ele>494.255005</ele><time>2006-06-25T11:26:02Z</time></trkpt>
<trkpt lat="47.39804506" lon="7.06620455"><ele>495.216187</ele><time>2006-06-25T11:26:07Z</time></trkpt>
<trkpt lat="47.39840984" lon="7.06674099"><ele>494.255005</ele><time>2006-06-25T11:26:16Z</time></trkpt>
<trkpt lat="47.39853859" lon="7.06727743"><ele>491.370972</ele><time>2006-06-25T11:26:21Z</time></trkpt>
<trkpt lat="47.39892483" lon="7.06946611"><ele>482.238525</ele><time>2006-06-25T11:26:38Z</time></trkpt>
<trkpt lat="47.39922523" lon="7.07090378"><ele>476.951294</ele><time>2006-06-25T11:26:49Z</time></trkpt>
<trkpt lat="47.39918232" lon="7.07109690"><ele>476.470581</ele><time>2006-06-25T11:26:53Z</time></trkpt>
<trkpt lat="47.39866734" lon="7.07105398"><ele>478.873901</ele><time>2006-06-25T11:27:05Z</time></trkpt>
<trkpt lat="47.39645720" lon="7.07107544"><ele>492.812988</ele><time>2006-06-25T11:28:11Z</time></trkpt>
<trkpt lat="47.39557743" lon="7.07079649"><ele>496.177734</ele><time>2006-06-25T11:28:34Z</time></trkpt>
<trkpt lat="47.39394665" lon="7.07041025"><ele>494.255005</ele><time>2006-06-25T11:29:05Z</time></trkpt>
<trkpt lat="47.39375353" lon="7.07021713"><ele>492.332397</ele><time>2006-06-25T11:29:09Z</time></trkpt>
<trkpt lat="47.39347458" lon="7.07034588"><ele>489.929077</ele><time>2006-06-25T11:29:14Z</time></trkpt>
<trkpt lat="47.39347458" lon="7.07073212"><ele>488.487183</ele><time>2006-06-25T11:29:18Z</time></trkpt>
<trkpt lat="47.39334583" lon="7.07083941"><ele>487.525635</ele><time>2006-06-25T11:29:21Z</time></trkpt>
<trkpt lat="47.39313126" lon="7.07064629"><ele>488.967773</ele><time>2006-06-25T11:29:26Z</time></trkpt>
<trkpt lat="47.39220858" lon="7.07019567"><ele>493.293579</ele><time>2006-06-25T11:29:54Z</time></trkpt>
<trkpt lat="47.39177942" lon="7.06989527"><ele>494.735596</ele><time>2006-06-25T11:30:07Z</time></trkpt>
<trkpt lat="47.39145756" lon="7.06948757"><ele>497.619629</ele><time>2006-06-25T11:30:20Z</time></trkpt>
<trkpt lat="47.39120007" lon="7.06892967"><ele>501.945557</ele><time>2006-06-25T11:30:35Z</time></trkpt>
<trkpt lat="47.39087820" lon="7.06832886"><ele>506.752075</ele><time>2006-06-25T11:30:53Z</time></trkpt>
<trkpt lat="47.39064217" lon="7.06774950"><ele>507.232788</ele><time>2006-06-25T11:31:07Z</time></trkpt>
<trkpt lat="47.39044905" lon="7.06691265"><ele>508.674683</ele><time>2006-06-25T11:31:24Z</time></trkpt>
<trkpt lat="47.39040613" lon="7.06629038"><ele>509.636108</ele><time>2006-06-25T11:31:37Z</time></trkpt>
<trkpt lat="47.38997698" lon="7.06521749"><ele>513.000732</ele><time>2006-06-25T11:32:03Z</time></trkpt>
<trkpt lat="47.38982677" lon="7.06474543"><ele>514.92334</ele><time>2006-06-25T11:32:15Z</time></trkpt>
<trkpt lat="47.38950491" lon="7.06429482"><ele>518.768555</ele><time>2006-06-25T11:32:30Z</time></trkpt>
<trkpt lat="47.38890409" lon="7.06320047"><ele>528.381836</ele><time>2006-06-25T11:33:09Z</time></trkpt>
<trkpt lat="47.38830328" lon="7.06232071"><ele>533.188354</ele><time>2006-06-25T11:33:44Z</time></trkpt>
<trkpt lat="47.38808870" lon="7.06193447"><ele>534.149658</ele><time>2006-06-25T11:33:58Z</time></trkpt>
<trkpt lat="47.38774538" lon="7.06139803"><ele>539.917603</ele><time>2006-06-25T11:34:25Z</time></trkpt>
<trkpt lat="47.38718748" lon="7.06062555"><ele>541.359497</ele><time>2006-06-25T11:35:06Z</time></trkpt>
<trkpt lat="47.38682270" lon="7.05998182"><ele>545.685547</ele><time>2006-06-25T11:35:39Z</time></trkpt>
<trkpt lat="47.38662958" lon="7.05955267"><ele>545.204834</ele><time>2006-06-25T11:35:57Z</time></trkpt>
<trkpt lat="47.38637209" lon="7.05931664"><ele>548.088867</ele><time>2006-06-25T11:36:14Z</time></trkpt>
<trkpt lat="47.38570690" lon="7.05897331"><ele>553.856689</ele><time>2006-06-25T11:36:56Z</time></trkpt>
<trkpt lat="47.38547087" lon="7.05890894"><ele>553.856689</ele><time>2006-06-25T11:37:11Z</time></trkpt>
<trkpt lat="47.38525629" lon="7.05899477"><ele>559.144043</ele><time>2006-06-25T11:37:28Z</time></trkpt>
<trkpt lat="47.38510609" lon="7.05923080"><ele>563.950439</ele><time>2006-06-25T11:37:47Z</time></trkpt>
<trkpt lat="47.38474131" lon="7.05957413"><ele>570.198975</ele><time>2006-06-25T11:38:14Z</time></trkpt>
<trkpt lat="47.38454819" lon="7.05961704"><ele>577.889648</ele><time>2006-06-25T11:38:27Z</time></trkpt>
<trkpt lat="47.38437653" lon="7.05938101"><ele>577.40918</ele><time>2006-06-25T11:38:42Z</time></trkpt>
<trkpt lat="47.38437653" lon="7.05847979"><ele>585.099609</ele><time>2006-06-25T11:39:18Z</time></trkpt>
<trkpt lat="47.38454819" lon="7.05736399"><ele>590.386963</ele><time>2006-06-25T11:40:00Z</time></trkpt>
<trkpt lat="47.38446236" lon="7.05697775"><ele>592.790283</ele><time>2006-06-25T11:40:18Z</time></trkpt>
<trkpt lat="47.38424778" lon="7.05687046"><ele>599.038574</ele><time>2006-06-25T11:40:32Z</time></trkpt>
<trkpt lat="47.38399029" lon="7.05706358"><ele>602.883789</ele><time>2006-06-25T11:40:51Z</time></trkpt>
<trkpt lat="47.38368988" lon="7.05757856"><ele>608.171387</ele><time>2006-06-25T11:41:23Z</time></trkpt>
<trkpt lat="47.38343239" lon="7.05749273"><ele>615.861816</ele><time>2006-06-25T11:41:43Z</time></trkpt>
<trkpt lat="47.38336802" lon="7.05725670"><ele>619.707031</ele><time>2006-06-25T11:41:57Z</time></trkpt>
<trkpt lat="47.38349676" lon="7.05669880"><ele>620.187744</ele><time>2006-06-25T11:42:21Z</time></trkpt>
<trkpt lat="47.38353968" lon="7.05622673"><ele>623.55249</ele><time>2006-06-25T11:42:38Z</time></trkpt>
<trkpt lat="47.38349676" lon="7.05588341"><ele>629.320068</ele><time>2006-06-25T11:42:54Z</time></trkpt>
<trkpt lat="47.38330364" lon="7.05569029"><ele>631.24292</ele><time>2006-06-25T11:43:08Z</time></trkpt>
<trkpt lat="47.38306761" lon="7.05571175"><ele>633.165283</ele><time>2006-06-25T11:43:24Z</time></trkpt>
<trkpt lat="47.38285303" lon="7.05592632"><ele>639.894775</ele><time>2006-06-25T11:43:43Z</time></trkpt>
<trkpt lat="47.38265991" lon="7.05605507"><ele>643.73999</ele><time>2006-06-25T11:43:57Z</time></trkpt>
<trkpt lat="47.38238096" lon="7.05635548"><ele>641.817383</ele><time>2006-06-25T11:44:15Z</time></trkpt>
<trkpt lat="47.38190889" lon="7.05648422"><ele>648.546387</ele><time>2006-06-25T11:44:44Z</time></trkpt>
<trkpt lat="47.38145828" lon="7.05646276"><ele>650.949707</ele><time>2006-06-25T11:45:23Z</time></trkpt>
<trkpt lat="47.38100767" lon="7.05629110"><ele>663.447021</ele><time>2006-06-25T11:45:54Z</time></trkpt>
<trkpt lat="47.38081455" lon="7.05614090"><ele>668.253662</ele><time>2006-06-25T11:46:08Z</time></trkpt>
<trkpt lat="47.38014936" lon="7.05607653"><ele>668.253662</ele><time>2006-06-25T11:46:31Z</time></trkpt>
<trkpt lat="47.37989187" lon="7.05594778"><ele>668.253662</ele><time>2006-06-25T11:46:39Z</time></trkpt>
<trkpt lat="47.37944126" lon="7.05468178"><ele>668.253662</ele><time>2006-06-25T11:47:03Z</time></trkpt>
<trkpt lat="47.37879753" lon="7.05470324"><ele>665.369629</ele><time>2006-06-25T11:47:17Z</time></trkpt>
<trkpt lat="47.37836838" lon="7.05498219"><ele>667.292236</ele><time>2006-06-25T11:47:30Z</time></trkpt>
<trkpt lat="47.37823963" lon="7.05515385"><ele>667.772705</ele><time>2006-06-25T11:47:34Z</time></trkpt>
<trkpt lat="47.37772465" lon="7.05618382"><ele>666.811523</ele><time>2006-06-25T11:47:37Z</time></trkpt>
<trkpt lat="47.37774611" lon="7.05629110"><ele>664.888916</ele><time>2006-06-25T11:47:40Z</time></trkpt>
<trkpt lat="47.37770319" lon="7.05742836"><ele>662.005127</ele><time>2006-06-25T11:48:05Z</time></trkpt>
<trkpt lat="47.37774611" lon="7.05957413"><ele>668.734375</ele><time>2006-06-25T11:49:20Z</time></trkpt>
<trkpt lat="47.37772465" lon="7.06049681"><ele>674.021484</ele><time>2006-06-25T11:49:51Z</time></trkpt>
<trkpt lat="47.37770319" lon="7.06094742"><ele>674.98291</ele><time>2006-06-25T11:50:07Z</time></trkpt>
<trkpt lat="47.37748861" lon="7.06292152"><ele>685.557373</ele><time>2006-06-25T11:51:25Z</time></trkpt>
<trkpt lat="47.37761736" lon="7.06375837"><ele>691.325195</ele><time>2006-06-25T11:52:07Z</time></trkpt>
<trkpt lat="47.37768173" lon="7.06444502"><ele>692.286621</ele><time>2006-06-25T11:52:45Z</time></trkpt>
<trkpt lat="47.37757444" lon="7.06463814"><ele>694.689697</ele><time>2006-06-25T11:52:52Z</time></trkpt>
<trkpt lat="47.37740278" lon="7.06468105"><ele>698.534912</ele><time>2006-06-25T11:53:02Z</time></trkpt>
<trkpt lat="47.37686634" lon="7.06444502"><ele>708.148438</ele><time>2006-06-25T11:53:38Z</time></trkpt>
<trkpt lat="47.37624407" lon="7.06423044"><ele>720.645508</ele><time>2006-06-25T11:54:25Z</time></trkpt>
<trkpt lat="47.37613678" lon="7.06423044"><ele>723.048828</ele><time>2006-06-25T11:54:34Z</time></trkpt>
<trkpt lat="47.37590075" lon="7.06403732"><ele>721.606689</ele><time>2006-06-25T11:54:53Z</time></trkpt>
<trkpt lat="47.37570763" lon="7.06371546"><ele>724.490723</ele><time>2006-06-25T11:55:20Z</time></trkpt>
<trkpt lat="47.37562180" lon="7.06330776"><ele>724.490723</ele><time>2006-06-25T11:55:42Z</time></trkpt>
<trkpt lat="47.37555742" lon="7.06255674"><ele>724.490723</ele><time>2006-06-25T11:56:23Z</time></trkpt>
<trkpt lat="47.37557888" lon="7.06236362"><ele>730.739258</ele><time>2006-06-25T11:56:32Z</time></trkpt>
<trkpt lat="47.37553596" lon="7.06223488"><ele>730.739258</ele><time>2006-06-25T11:56:39Z</time></trkpt>
<trkpt lat="47.37538576" lon="7.06126928"><ele>736.987793</ele><time>2006-06-25T11:57:26Z</time></trkpt>
<trkpt lat="47.37512827" lon="7.06053972"><ele>742.755859</ele><time>2006-06-25T11:58:23Z</time></trkpt>
<trkpt lat="47.37506390" lon="7.06026077"><ele>749.96582</ele><time>2006-06-25T11:58:37Z</time></trkpt>
<trkpt lat="47.37487078" lon="7.05993891"><ele>753.811035</ele><time>2006-06-25T11:58:57Z</time></trkpt>
<trkpt lat="47.37478495" lon="7.05974579"><ele>750.927002</ele><time>2006-06-25T11:59:13Z</time></trkpt>
<trkpt lat="47.37476349" lon="7.05931664"><ele>751.407715</ele><time>2006-06-25T11:59:33Z</time></trkpt>
<trkpt lat="47.37469912" lon="7.05882311"><ele>754.291748</ele><time>2006-06-25T11:59:56Z</time></trkpt>
<trkpt lat="47.37457037" lon="7.05802917"><ele>760.540039</ele><time>2006-06-25T12:00:34Z</time></trkpt>
<trkpt lat="47.37446308" lon="7.05755711"><ele>759.578857</ele><time>2006-06-25T12:00:57Z</time></trkpt>
<trkpt lat="47.37431288" lon="7.05710649"><ele>760.540039</ele><time>2006-06-25T12:01:21Z</time></trkpt>
<trkpt lat="47.37420559" lon="7.05708504"><ele>758.617432</ele><time>2006-06-25T12:01:25Z</time></trkpt>
<trkpt lat="47.37386227" lon="7.05560446"><ele>777.363281</ele><time>2006-06-25T12:02:38Z</time></trkpt>
<trkpt lat="47.37384081" lon="7.05528259"><ele>783.611816</ele><time>2006-06-25T12:02:54Z</time></trkpt>
<trkpt lat="47.37351894" lon="7.05429554"><ele>795.628174</ele><time>2006-06-25T12:03:38Z</time></trkpt>
<trkpt lat="47.37336874" lon="7.05399513"><ele>799.473633</ele><time>2006-06-25T12:03:53Z</time></trkpt>
<trkpt lat="47.37328291" lon="7.05375910"><ele>800.915527</ele><time>2006-06-25T12:04:05Z</time></trkpt>
<trkpt lat="47.37326145" lon="7.05332994"><ele>803.318848</ele><time>2006-06-25T12:04:23Z</time></trkpt>
<trkpt lat="47.37328291" lon="7.05328703"><ele>803.318848</ele><time>2006-06-25T12:04:25Z</time></trkpt>
<trkpt lat="47.37351894" lon="7.05326557"><ele>803.318848</ele><time>2006-06-25T12:04:34Z</time></trkpt>
<trkpt lat="47.37384081" lon="7.05264330"><ele>805.722168</ele><time>2006-06-25T12:04:59Z</time></trkpt>
<trkpt lat="47.37401247" lon="7.05197811"><ele>808.125488</ele><time>2006-06-25T12:05:18Z</time></trkpt>
<trkpt lat="47.37424850" lon="7.05054045"><ele>808.605957</ele><time>2006-06-25T12:05:48Z</time></trkpt>
<trkpt lat="47.37452745" lon="7.04854488"><ele>809.08667</ele><time>2006-06-25T12:06:20Z</time></trkpt>
<trkpt lat="47.37450600" lon="7.04787970"><ele>810.047852</ele><time>2006-06-25T12:06:44Z</time></trkpt>
<trkpt lat="47.37444162" lon="7.04725742"><ele>810.528564</ele><time>2006-06-25T12:07:10Z</time></trkpt>
<trkpt lat="47.37424850" lon="7.04616308"><ele>811.009277</ele><time>2006-06-25T12:07:51Z</time></trkpt>
<trkpt lat="47.37416267" lon="7.04545498"><ele>811.009277</ele><time>2006-06-25T12:08:11Z</time></trkpt>
<trkpt lat="47.37411976" lon="7.04468250"><ele>811.009277</ele><time>2006-06-25T12:08:38Z</time></trkpt>
<trkpt lat="47.37452745" lon="7.04386711"><ele>812.932129</ele><time>2006-06-25T12:08:54Z</time></trkpt>
<trkpt lat="47.37465620" lon="7.04307318"><ele>817.738525</ele><time>2006-06-25T12:09:27Z</time></trkpt>
<trkpt lat="47.37461329" lon="7.04266548"><ele>819.180664</ele><time>2006-06-25T12:09:41Z</time></trkpt>
<trkpt lat="47.37426996" lon="7.04109907"><ele>819.180664</ele><time>2006-06-25T12:10:23Z</time></trkpt>
<trkpt lat="47.37420559" lon="7.03938246"><ele>823.025879</ele><time>2006-06-25T12:11:12Z</time></trkpt>
<trkpt lat="47.37420559" lon="7.03794479"><ele>823.506592</ele><time>2006-06-25T12:11:57Z</time></trkpt>
<trkpt lat="47.37411976" lon="7.03738689"><ele>828.793945</ele><time>2006-06-25T12:12:11Z</time></trkpt>
<trkpt lat="47.37396955" lon="7.03725815"><ele>829.274414</ele><time>2006-06-25T12:12:21Z</time></trkpt>
<trkpt lat="47.37386227" lon="7.03732252"><ele>830.23584</ele><time>2006-06-25T12:12:32Z</time></trkpt>
<trkpt lat="47.37381935" lon="7.03803062"><ele>841.290771</ele><time>2006-06-25T12:13:03Z</time></trkpt>
<trkpt lat="47.37371206" lon="7.03873873"><ele>848.500732</ele><time>2006-06-25T12:13:41Z</time></trkpt>
<trkpt lat="47.37364769" lon="7.03968287"><ele>854.749268</ele><time>2006-06-25T12:14:29Z</time></trkpt>
<trkpt lat="47.37354040" lon="7.04017639"><ele>857.633301</ele><time>2006-06-25T12:14:47Z</time></trkpt>
<trkpt lat="47.37339020" lon="7.04069138"><ele>861.959473</ele><time>2006-06-25T12:15:10Z</time></trkpt>
<trkpt lat="47.37261772" lon="7.04174280"><ele>865.323975</ele><time>2006-06-25T12:15:30Z</time></trkpt>
<trkpt lat="47.37229586" lon="7.04257965"><ele>865.323975</ele><time>2006-06-25T12:15:49Z</time></trkpt>
<trkpt lat="47.37212420" lon="7.04391003"><ele>867.246582</ele><time>2006-06-25T12:16:10Z</time></trkpt>
<trkpt lat="47.37169504" lon="7.04981089"><ele>867.246582</ele><time>2006-06-25T12:17:08Z</time></trkpt>
<trkpt lat="47.37137318" lon="7.05197811"><ele>867.246582</ele><time>2006-06-25T12:17:35Z</time></trkpt>
<trkpt lat="47.37010717" lon="7.05127001"><ele>865.804688</ele><time>2006-06-25T12:17:43Z</time></trkpt>
<trkpt lat="47.37006426" lon="7.05144167"><ele>864.362549</ele><time>2006-06-25T12:17:51Z</time></trkpt>
<trkpt lat="47.37004280" lon="7.05139875"><ele>866.285156</ele><time>2006-06-25T12:17:59Z</time></trkpt>
<trkpt lat="47.36982822" lon="7.05139875"><ele>863.401367</ele><time>2006-06-25T12:19:03Z</time></trkpt>
<trkpt lat="47.36965656" lon="7.05079794"><ele>860.998047</ele><time>2006-06-25T12:19:14Z</time></trkpt>
<trkpt lat="47.36935616" lon="7.04856634"><ele>860.998047</ele><time>2006-06-25T12:19:40Z</time></trkpt>
<trkpt lat="47.36912012" lon="7.04755783"><ele>855.710693</ele><time>2006-06-25T12:19:50Z</time></trkpt>
<trkpt lat="47.36847639" lon="7.04622746"><ele>835.522949</ele><time>2006-06-25T12:20:02Z</time></trkpt>
<trkpt lat="47.36766100" lon="7.04397440"><ele>811.48999</ele><time>2006-06-25T12:20:31Z</time></trkpt>
<trkpt lat="47.36716747" lon="7.04275131"><ele>803.318848</ele><time>2006-06-25T12:20:52Z</time></trkpt>
<trkpt lat="47.36678123" lon="7.04232216"><ele>790.821533</ele><time>2006-06-25T12:21:00Z</time></trkpt>
<trkpt lat="47.36658812" lon="7.04217196"><ele>785.534424</ele><time>2006-06-25T12:21:04Z</time></trkpt>
<trkpt lat="47.36630917" lon="7.04230070"><ele>777.84375</ele><time>2006-06-25T12:21:11Z</time></trkpt>
<trkpt lat="47.36628771" lon="7.04234362"><ele>776.401855</ele><time>2006-06-25T12:21:12Z</time></trkpt>
<trkpt lat="47.36628771" lon="7.04292297"><ele>774.959961</ele><time>2006-06-25T12:21:22Z</time></trkpt>
<trkpt lat="47.36648083" lon="7.04551935"><ele>769.192139</ele><time>2006-06-25T12:21:51Z</time></trkpt>
<trkpt lat="47.36639500" lon="7.04622746"><ele>748.043213</ele><time>2006-06-25T12:22:28Z</time></trkpt>
<trkpt lat="47.36626625" lon="7.04676390"><ele>744.197754</ele><time>2006-06-25T12:22:39Z</time></trkpt>
<trkpt lat="47.36613750" lon="7.04751492"><ele>739.391113</ele><time>2006-06-25T12:22:49Z</time></trkpt>
<trkpt lat="47.36609459" lon="7.04820156"><ele>736.026611</ele><time>2006-06-25T12:22:59Z</time></trkpt>
<trkpt lat="47.36598730" lon="7.04873800"><ele>730.258545</ele><time>2006-06-25T12:23:09Z</time></trkpt>
<trkpt lat="47.36581564" lon="7.04905987"><ele>726.41333</ele><time>2006-06-25T12:23:19Z</time></trkpt>
<trkpt lat="47.36579418" lon="7.04938173"><ele>725.932617</ele><time>2006-06-25T12:23:28Z</time></trkpt>
<trkpt lat="47.36596584" lon="7.05004692"><ele>724.01001</ele><time>2006-06-25T12:23:42Z</time></trkpt>
<trkpt lat="47.36618042" lon="7.05069065"><ele>722.087402</ele><time>2006-06-25T12:23:55Z</time></trkpt>
<trkpt lat="47.36643791" lon="7.05180645"><ele>724.490723</ele><time>2006-06-25T12:24:28Z</time></trkpt>
<trkpt lat="47.36658812" lon="7.05221415"><ele>724.490723</ele><time>2006-06-25T12:25:04Z</time></trkpt>
<trkpt lat="47.36660957" lon="7.05245018"><ele>725.932617</ele><time>2006-06-25T12:25:21Z</time></trkpt>
<trkpt lat="47.36658812" lon="7.05234289"><ele>726.41333</ele><time>2006-06-25T12:25:26Z</time></trkpt>
<trkpt lat="47.36669540" lon="7.05264330"><ele>727.855225</ele><time>2006-06-25T12:25:45Z</time></trkpt>
<trkpt lat="47.36671686" lon="7.05292225"><ele>725.451904</ele><time>2006-06-25T12:25:58Z</time></trkpt>
<trkpt lat="47.36680269" lon="7.05324411"><ele>726.41333</ele><time>2006-06-25T12:26:19Z</time></trkpt>
<trkpt lat="47.36697435" lon="7.05448866"><ele>727.855225</ele><time>2006-06-25T12:27:07Z</time></trkpt>
<trkpt lat="47.36699581" lon="7.05528259"><ele>727.374756</ele><time>2006-06-25T12:27:24Z</time></trkpt>
<trkpt lat="47.36645937" lon="7.05796480"><ele>727.855225</ele><time>2006-06-25T12:27:44Z</time></trkpt>
<trkpt lat="47.36639500" lon="7.05880165"><ele>727.855225</ele><time>2006-06-25T12:28:03Z</time></trkpt>
<trkpt lat="47.36613750" lon="7.05884457"><ele>727.855225</ele><time>2006-06-25T12:28:04Z</time></trkpt>
<trkpt lat="47.36594439" lon="7.05880165"><ele>727.855225</ele><time>2006-06-25T12:28:09Z</time></trkpt>
<trkpt lat="47.36572981" lon="7.05886602"><ele>726.894043</ele><time>2006-06-25T12:28:16Z</time></trkpt>
<trkpt lat="47.36547232" lon="7.05916643"><ele>726.894043</ele><time>2006-06-25T12:28:25Z</time></trkpt>
<trkpt lat="47.36536503" lon="7.05978870"><ele>726.41333</ele><time>2006-06-25T12:28:33Z</time></trkpt>
<trkpt lat="47.36527920" lon="7.06103325"><ele>727.374756</ele><time>2006-06-25T12:28:49Z</time></trkpt>
<trkpt lat="47.36525774" lon="7.06197739"><ele>726.41333</ele><time>2006-06-25T12:29:06Z</time></trkpt>
<trkpt lat="47.36536503" lon="7.06247091"><ele>726.41333</ele><time>2006-06-25T12:29:20Z</time></trkpt>
<trkpt lat="47.36542940" lon="7.06352234"><ele>725.451904</ele><time>2006-06-25T12:29:45Z</time></trkpt>
<trkpt lat="47.36525774" lon="7.06534624"><ele>731.219971</ele><time>2006-06-25T12:30:25Z</time></trkpt>
<trkpt lat="47.36530066" lon="7.06631184"><ele>745.158936</ele><time>2006-06-25T12:31:07Z</time></trkpt>
<trkpt lat="47.36523628" lon="7.06772804"><ele>755.25293</ele><time>2006-06-25T12:35:31Z</time></trkpt>
<trkpt lat="47.36542940" lon="7.06822157"><ele>761.982178</ele><time>2006-06-25T12:36:00Z</time></trkpt>
<trkpt lat="47.36549377" lon="7.06826448"><ele>761.982178</ele><time>2006-06-25T12:36:07Z</time></trkpt>
<trkpt lat="47.36560106" lon="7.06822157"><ele>763.424072</ele><time>2006-06-25T12:36:17Z</time></trkpt>
<trkpt lat="47.36575127" lon="7.06835032"><ele>766.788818</ele><time>2006-06-25T12:36:32Z</time></trkpt>
<trkpt lat="47.36592293" lon="7.06880093"><ele>771.114746</ele><time>2006-06-25T12:37:03Z</time></trkpt>
<trkpt lat="47.36624479" lon="7.06935883"><ele>781.20874</ele><time>2006-06-25T12:37:50Z</time></trkpt>
<trkpt lat="47.36641645" lon="7.06955194"><ele>785.534424</ele><time>2006-06-25T12:38:07Z</time></trkpt>
<trkpt lat="47.36648083" lon="7.06972361"><ele>786.976318</ele><time>2006-06-25T12:38:18Z</time></trkpt>
<trkpt lat="47.36665249" lon="7.07002401"><ele>790.341064</ele><time>2006-06-25T12:38:39Z</time></trkpt>
<trkpt lat="47.36686707" lon="7.07030296"><ele>794.186279</ele><time>2006-06-25T12:39:02Z</time></trkpt>
<trkpt lat="47.36693144" lon="7.07034588"><ele>795.628174</ele><time>2006-06-25T12:39:10Z</time></trkpt>
<trkpt lat="47.36693144" lon="7.07038879"><ele>797.070313</ele><time>2006-06-25T12:39:19Z</time></trkpt>
<trkpt lat="47.36699581" lon="7.07045317"><ele>796.589844</ele><time>2006-06-25T12:39:58Z</time></trkpt>
<trkpt lat="47.36761808" lon="7.07184792"><ele>820.141846</ele><time>2006-06-25T12:42:00Z</time></trkpt>
<trkpt lat="47.36781120" lon="7.07216978"><ele>826.871094</ele><time>2006-06-25T12:42:31Z</time></trkpt>
<trkpt lat="47.36798286" lon="7.07257748"><ele>833.600342</ele><time>2006-06-25T12:43:07Z</time></trkpt>
<trkpt lat="47.36839056" lon="7.07332850"><ele>841.290771</ele><time>2006-06-25T12:44:13Z</time></trkpt>
<trkpt lat="47.36901283" lon="7.07377911"><ele>849.462158</ele><time>2006-06-25T12:45:04Z</time></trkpt>
<trkpt lat="47.36922741" lon="7.07405806"><ele>849.462158</ele><time>2006-06-25T12:45:24Z</time></trkpt>
<trkpt lat="47.36948490" lon="7.07446575"><ele>851.384766</ele><time>2006-06-25T12:45:59Z</time></trkpt>
<trkpt lat="47.36954927" lon="7.07478762"><ele>854.268799</ele><time>2006-06-25T12:46:15Z</time></trkpt>
<trkpt lat="47.36969948" lon="7.07510948"><ele>854.268799</ele><time>2006-06-25T12:46:33Z</time></trkpt>
<trkpt lat="47.36976385" lon="7.07560301"><ele>864.843262</ele><time>2006-06-25T12:46:51Z</time></trkpt>
<trkpt lat="47.36987114" lon="7.07586050"><ele>870.611084</ele><time>2006-06-25T12:47:04Z</time></trkpt>
<trkpt lat="47.37008572" lon="7.07594633"><ele>876.37915</ele><time>2006-06-25T12:47:24Z</time></trkpt>
<trkpt lat="47.37021446" lon="7.07620382"><ele>878.301758</ele><time>2006-06-25T12:47:37Z</time></trkpt>
<trkpt lat="47.37053633" lon="7.07667589"><ele>880.705078</ele><time>2006-06-25T12:48:00Z</time></trkpt>
<trkpt lat="47.37083673" lon="7.07695484"><ele>882.627686</ele><time>2006-06-25T12:48:15Z</time></trkpt>
<trkpt lat="47.37143755" lon="7.07740545"><ele>881.185791</ele><time>2006-06-25T12:48:44Z</time></trkpt>
<trkpt lat="47.37143755" lon="7.07779169"><ele>880.705078</ele><time>2006-06-25T12:48:50Z</time></trkpt>
<trkpt lat="47.37163067" lon="7.07766294"><ele>882.627686</ele><time>2006-06-25T12:48:56Z</time></trkpt>
<trkpt lat="47.37208128" lon="7.07654715"><ele>882.627686</ele><time>2006-06-25T12:49:10Z</time></trkpt>
<trkpt lat="47.37291813" lon="7.07425117"><ele>880.224365</ele><time>2006-06-25T12:49:33Z</time></trkpt>
<trkpt lat="47.37377644" lon="7.07141876"><ele>880.224365</ele><time>2006-06-25T12:50:01Z</time></trkpt>
<trkpt lat="47.37529993" lon="7.07159042"><ele>873.975586</ele><time>2006-06-25T12:50:17Z</time></trkpt>
<trkpt lat="47.37635136" lon="7.07236290"><ele>776.882568</ele><time>2006-06-25T12:50:24Z</time></trkpt>
<trkpt lat="47.37718821" lon="7.07229853"><ele>778.805176</ele><time>2006-06-25T12:50:32Z</time></trkpt>
<trkpt lat="47.37744570" lon="7.07231998"><ele>778.805176</ele><time>2006-06-25T12:50:35Z</time></trkpt>
<trkpt lat="47.37894773" lon="7.07010984"><ele>778.324463</ele><time>2006-06-25T12:51:00Z</time></trkpt>
<trkpt lat="47.37860441" lon="7.06835032"><ele>778.324463</ele><time>2006-06-25T12:51:04Z</time></trkpt>
<trkpt lat="47.37914085" lon="7.06480980"><ele>755.25293</ele><time>2006-06-25T12:51:24Z</time></trkpt>
<trkpt lat="47.37937689" lon="7.06450939"><ele>751.888428</ele><time>2006-06-25T12:51:28Z</time></trkpt>
<trkpt lat="47.37954855" lon="7.06498146"><ele>745.158936</ele><time>2006-06-25T12:51:33Z</time></trkpt>
<trkpt lat="47.37961292" lon="7.06571102"><ele>741.794434</ele><time>2006-06-25T12:51:38Z</time></trkpt>
<trkpt lat="47.38032103" lon="7.06779242"><ele>737.468506</ele><time>2006-06-25T12:51:53Z</time></trkpt>
<trkpt lat="47.38077164" lon="7.06989527"><ele>737.468506</ele><time>2006-06-25T12:52:07Z</time></trkpt>
<trkpt lat="47.38150120" lon="7.07459450"><ele>735.545898</ele><time>2006-06-25T12:52:36Z</time></trkpt>
<trkpt lat="47.38132954" lon="7.07498074"><ele>735.545898</ele><time>2006-06-25T12:52:39Z</time></trkpt>
<trkpt lat="47.38107204" lon="7.07583904"><ele>733.623291</ele><time>2006-06-25T12:52:45Z</time></trkpt>
<trkpt lat="47.38111496" lon="7.07847834"><ele>733.623291</ele><time>2006-06-25T12:53:03Z</time></trkpt>
<trkpt lat="47.38160849" lon="7.07987309"><ele>733.623291</ele><time>2006-06-25T12:53:12Z</time></trkpt>
<trkpt lat="47.38169432" lon="7.08229780"><ele>730.258545</ele><time>2006-06-25T12:53:23Z</time></trkpt>
<trkpt lat="47.38158703" lon="7.08283424"><ele>722.568115</ele><time>2006-06-25T12:53:27Z</time></trkpt>
<trkpt lat="47.38208055" lon="7.08465815"><ele>708.148438</ele><time>2006-06-25T12:53:38Z</time></trkpt>
<trkpt lat="47.38244534" lon="7.08553791"><ele>595.193359</ele><time>2006-06-25T12:53:44Z</time></trkpt>
<trkpt lat="47.38306761" lon="7.08592415"><ele>599.038574</ele><time>2006-06-25T12:53:50Z</time></trkpt>
<trkpt lat="47.38351822" lon="7.08562374"><ele>596.154785</ele><time>2006-06-25T12:53:55Z</time></trkpt>
<trkpt lat="47.38414049" lon="7.08345652"><ele>586.541504</ele><time>2006-06-25T12:54:10Z</time></trkpt>
<trkpt lat="47.38459110" lon="7.08249092"><ele>579.331543</ele><time>2006-06-25T12:54:17Z</time></trkpt>
<trkpt lat="47.38517046" lon="7.08148241"><ele>574.525146</ele><time>2006-06-25T12:54:25Z</time></trkpt>
<trkpt lat="47.38547087" lon="7.08107471"><ele>572.602539</ele><time>2006-06-25T12:54:29Z</time></trkpt>
<trkpt lat="47.38581419" lon="7.08077431"><ele>569.237793</ele><time>2006-06-25T12:54:33Z</time></trkpt>
<trkpt lat="47.38643646" lon="7.08015203"><ele>564.431152</ele><time>2006-06-25T12:54:40Z</time></trkpt>
<trkpt lat="47.38699436" lon="7.07998037"><ele>561.547363</ele><time>2006-06-25T12:54:46Z</time></trkpt>
<trkpt lat="47.38755226" lon="7.08025932"><ele>557.702148</ele><time>2006-06-25T12:54:52Z</time></trkpt>
<trkpt lat="47.38793850" lon="7.08006620"><ele>556.26001</ele><time>2006-06-25T12:54:57Z</time></trkpt>
<trkpt lat="47.38804579" lon="7.07991600"><ele>555.298584</ele><time>2006-06-25T12:54:59Z</time></trkpt>
<trkpt lat="47.38817453" lon="7.07935810"><ele>553.375977</ele><time>2006-06-25T12:55:04Z</time></trkpt>
<trkpt lat="47.38821745" lon="7.07852125"><ele>550.972656</ele><time>2006-06-25T12:55:11Z</time></trkpt>
<trkpt lat="47.38830328" lon="7.07815647"><ele>550.011475</ele><time>2006-06-25T12:55:15Z</time></trkpt>
<trkpt lat="47.38838911" lon="7.07759857"><ele>548.569336</ele><time>2006-06-25T12:55:21Z</time></trkpt>
<trkpt lat="47.38836765" lon="7.07695484"><ele>545.685547</ele><time>2006-06-25T12:55:28Z</time></trkpt>
<trkpt lat="47.38858223" lon="7.07646132"><ele>541.84021</ele><time>2006-06-25T12:55:35Z</time></trkpt>
<trkpt lat="47.38875389" lon="7.07637548"><ele>540.398315</ele><time>2006-06-25T12:55:38Z</time></trkpt>
<trkpt lat="47.38888264" lon="7.07596779"><ele>537.033691</ele><time>2006-06-25T12:55:43Z</time></trkpt>
<trkpt lat="47.38883972" lon="7.07547426"><ele>534.149658</ele><time>2006-06-25T12:55:48Z</time></trkpt>
<trkpt lat="47.38952637" lon="7.07365036"><ele>518.287842</ele><time>2006-06-25T12:56:04Z</time></trkpt>
<trkpt lat="47.38978386" lon="7.07332850"><ele>513.962036</ele><time>2006-06-25T12:56:08Z</time></trkpt>
<trkpt lat="47.39021301" lon="7.07319975"><ele>508.674683</ele><time>2006-06-25T12:56:13Z</time></trkpt>
<trkpt lat="47.39081383" lon="7.07332850"><ele>505.790894</ele><time>2006-06-25T12:56:20Z</time></trkpt>
<trkpt lat="47.39124298" lon="7.07313538"><ele>501.945557</ele><time>2006-06-25T12:56:25Z</time></trkpt>
<trkpt lat="47.39223003" lon="7.07227707"><ele>490.890381</ele><time>2006-06-25T12:56:36Z</time></trkpt>
<trkpt lat="47.39248753" lon="7.07195520"><ele>488.00647</ele><time>2006-06-25T12:56:40Z</time></trkpt>
<trkpt lat="47.39283085" lon="7.07191229"><ele>484.161133</ele><time>2006-06-25T12:56:45Z</time></trkpt>
<trkpt lat="47.39317417" lon="7.07206249"><ele>481.277222</ele><time>2006-06-25T12:56:49Z</time></trkpt>
<trkpt lat="47.39341021" lon="7.07210541"><ele>479.835083</ele><time>2006-06-25T12:56:52Z</time></trkpt>
<trkpt lat="47.39375353" lon="7.07201958"><ele>477.912476</ele><time>2006-06-25T12:56:58Z</time></trkpt>
<trkpt lat="47.39356041" lon="7.07131147"><ele>480.315918</ele><time>2006-06-25T12:57:15Z</time></trkpt>
<trkpt lat="47.39349604" lon="7.07079649"><ele>483.199829</ele><time>2006-06-25T12:57:32Z</time></trkpt>
<trkpt lat="47.39356041" lon="7.07026005"><ele>485.122437</ele><time>2006-06-25T12:57:48Z</time></trkpt>
<trkpt lat="47.39373207" lon="7.07019567"><ele>486.08374</ele><time>2006-06-25T12:57:57Z</time></trkpt>
<trkpt lat="47.39396811" lon="7.07038879"><ele>488.967773</ele><time>2006-06-25T12:58:07Z</time></trkpt>
<trkpt lat="47.39637136" lon="7.07103252"><ele>486.564453</ele><time>2006-06-25T12:59:08Z</time></trkpt>
<trkpt lat="47.39707947" lon="7.07107544"><ele>483.199829</ele><time>2006-06-25T12:59:21Z</time></trkpt>
<trkpt lat="47.39926815" lon="7.07105398"><ele>469.741333</ele><time>2006-06-25T12:59:52Z</time></trkpt>
<trkpt lat="47.39943981" lon="7.07129002"><ele>468.299316</ele><time>2006-06-25T12:59:56Z</time></trkpt>
<trkpt lat="47.39978313" lon="7.07247019"><ele>465.896118</ele><time>2006-06-25T13:00:10Z</time></trkpt>
<trkpt lat="47.39993334" lon="7.07360744"><ele>463.973389</ele><time>2006-06-25T13:00:23Z</time></trkpt>
<trkpt lat="47.40021229" lon="7.07470179"><ele>461.57019</ele><time>2006-06-25T13:00:37Z</time></trkpt>
<trkpt lat="47.40046978" lon="7.07530260"><ele>459.16687</ele><time>2006-06-25T13:00:45Z</time></trkpt>
<trkpt lat="47.40053415" lon="7.07528114"><ele>460.128174</ele><time>2006-06-25T13:00:50Z</time></trkpt>
<trkpt lat="47.40051270" lon="7.07493782"><ele>463.492798</ele><time>2006-06-25T13:01:02Z</time></trkpt>
<trkpt lat="47.40053415" lon="7.07459450"><ele>465.415527</ele><time>2006-06-25T13:01:13Z</time></trkpt>
<trkpt lat="47.40064144" lon="7.07425117"><ele>468.299316</ele><time>2006-06-25T13:01:25Z</time></trkpt>
<trkpt lat="47.40087748" lon="7.07390785"><ele>470.221924</ele><time>2006-06-25T13:01:39Z</time></trkpt>
<trkpt lat="47.40102768" lon="7.07356453"><ele>474.067261</ele><time>2006-06-25T13:01:53Z</time></trkpt>
<trkpt lat="47.40113497" lon="7.07227707"><ele>474.547974</ele><time>2006-06-25T13:02:24Z</time></trkpt>
<trkpt lat="47.40113497" lon="7.07137585"><ele>474.067261</ele><time>2006-06-25T13:02:37Z</time></trkpt>
<trkpt lat="47.40124226" lon="7.07038879"><ele>475.509277</ele><time>2006-06-25T13:02:49Z</time></trkpt>
<trkpt lat="47.40137100" lon="7.06957340"><ele>476.470581</ele><time>2006-06-25T13:03:02Z</time></trkpt>
<trkpt lat="47.40154266" lon="7.06875801"><ele>479.354492</ele><time>2006-06-25T13:03:20Z</time></trkpt>
<trkpt lat="47.40137100" lon="7.06734180"><ele>483.199829</ele><time>2006-06-25T13:03:54Z</time></trkpt>
<trkpt lat="47.40220785" lon="7.06659079"><ele>484.641846</ele><time>2006-06-25T13:04:14Z</time></trkpt>
<trkpt lat="47.40250826" lon="7.06650496"><ele>484.161133</ele><time>2006-06-25T13:04:21Z</time></trkpt>
<trkpt lat="47.40267992" lon="7.06659079"><ele>484.161133</ele><time>2006-06-25T13:04:25Z</time></trkpt>
<trkpt lat="47.40272284" lon="7.06667662"><ele>484.161133</ele><time>2006-06-25T13:04:27Z</time></trkpt>
<trkpt lat="47.40310907" lon="7.06686974"><ele>483.199829</ele><time>2006-06-25T13:04:36Z</time></trkpt>
<trkpt lat="47.40465403" lon="7.06734180"><ele>480.796631</ele><time>2006-06-25T13:05:05Z</time></trkpt>
<trkpt lat="47.40538359" lon="7.06732035"><ele>481.757813</ele><time>2006-06-25T13:05:21Z</time></trkpt>
<trkpt lat="47.40583420" lon="7.06736326"><ele>481.757813</ele><time>2006-06-25T13:05:31Z</time></trkpt>
<trkpt lat="47.40675688" lon="7.06770658"><ele>480.796631</ele><time>2006-06-25T13:05:49Z</time></trkpt>
<trkpt lat="47.40800142" lon="7.06965923"><ele>481.277222</ele><time>2006-06-25T13:06:12Z</time></trkpt>
<trkpt lat="47.40864515" lon="7.07043171"><ele>474.067261</ele><time>2006-06-25T13:06:27Z</time></trkpt>
<trkpt lat="47.40890265" lon="7.07071066"><ele>472.144653</ele><time>2006-06-25T13:06:32Z</time></trkpt>
<trkpt lat="47.40903139" lon="7.07077503"><ele>471.18335</ele><time>2006-06-25T13:06:34Z</time></trkpt>
<trkpt lat="47.40924597" lon="7.07116127"><ele>469.260742</ele><time>2006-06-25T13:06:40Z</time></trkpt>
<trkpt lat="47.40993261" lon="7.07186937"><ele>465.896118</ele><time>2006-06-25T13:06:50Z</time></trkpt>
<trkpt lat="47.41055489" lon="7.07319975"><ele>456.282959</ele><time>2006-06-25T13:07:02Z</time></trkpt>
<trkpt lat="47.41098404" lon="7.07358599"><ele>451.476318</ele><time>2006-06-25T13:07:07Z</time></trkpt>
<trkpt lat="47.41109133" lon="7.07358599"><ele>450.515015</ele><time>2006-06-25T13:07:08Z</time></trkpt>
<trkpt lat="47.41250753" lon="7.07416534"><ele>444.266479</ele><time>2006-06-25T13:07:25Z</time></trkpt>
<trkpt lat="47.41276503" lon="7.07418680"><ele>443.305054</ele><time>2006-06-25T13:07:29Z</time></trkpt>
<trkpt lat="47.41385937" lon="7.07395077"><ele>438.979126</ele><time>2006-06-25T13:07:50Z</time></trkpt>
<trkpt lat="47.41424561" lon="7.07395077"><ele>439.459717</ele><time>2006-06-25T13:08:21Z</time></trkpt>
<trkpt lat="47.41441727" lon="7.07422972"><ele>440.901855</ele><time>2006-06-25T13:08:31Z</time></trkpt>
<trkpt lat="47.41465330" lon="7.07474470"><ele>444.266479</ele><time>2006-06-25T13:08:48Z</time></trkpt>
<trkpt lat="47.41476059" lon="7.07508802"><ele>444.266479</ele><time>2006-06-25T13:08:58Z</time></trkpt>
<trkpt lat="47.41495371" lon="7.07549572"><ele>441.382446</ele><time>2006-06-25T13:09:14Z</time></trkpt>
<trkpt lat="47.41510391" lon="7.07571030"><ele>440.901855</ele><time>2006-06-25T13:09:23Z</time></trkpt>
<trkpt lat="47.41514683" lon="7.07581758"><ele>441.382446</ele><time>2006-06-25T13:09:27Z</time></trkpt>
<trkpt lat="47.41525412" lon="7.07575321"><ele>440.901855</ele><time>2006-06-25T13:09:40Z</time></trkpt>
</trkseg></trk></gpx>